Time;durP1;ratioP1;P1;durP2;ratioP2;P2;SDS_P1;SDS_P2;PMS_P1;PMS_P2;Temp;Humidity;BMP_temperature;BMP_pressure;BME280_temperature;BME280_humidity;BME280_pressure;Samples;Min_cycle;Max_cycle;Signal;HPM_P1;HPM_P2
2023/07/11 00:01:28;;;;;;;9.95;9.13;;;27.40;99.90;;;;;;5070567;28;20246;-74
2023/07/11 00:03:55;;;;;;;8.98;8.07;;;27.30;99.90;;;;;;5070534;28;20244;-69
2023/07/11 00:06:22;;;;;;;9.23;8.32;;;27.40;99.90;;;;;;5070517;28;20633;-70
2023/07/11 00:08:49;;;;;;;10.20;9.20;;;27.40;99.90;;;;;;5070718;28;20245;-70
2023/07/11 00:11:18;;;;;;;8.93;8.00;;;27.30;99.90;;;;;;5056460;28;20686;-77
2023/07/11 00:13:49;;;;;;;13.25;11.27;;;27.20;99.90;;;;;;5070392;28;20242;-69
2023/07/11 00:16:17;;;;;;;10.65;8.75;;;27.20;99.90;;;;;;5070635;28;20230;-72
2023/07/11 00:18:44;;;;;;;9.27;8.35;;;27.10;99.90;;;;;;5070205;28;20297;-74
2023/07/11 00:21:11;;;;;;;9.02;8.27;;;27.00;99.90;;;;;;5070517;28;20238;-76
2023/07/11 00:23:39;;;;;;;8.77;7.88;;;27.00;99.90;;;;;;5070373;28;20634;-70
2023/07/11 00:26:06;;;;;;;10.43;9.45;;;27.10;99.90;;;;;;5070608;28;20237;-69
2023/07/11 00:28:33;;;;;;;9.27;8.48;;;27.10;99.90;;;;;;5069981;28;20245;-80
2023/07/11 00:31:02;;;;;;;9.85;8.95;;;27.20;99.90;;;;;;5070496;28;20240;-80
2023/07/11 00:33:29;;;;;;;8.60;7.78;;;27.20;99.90;;;;;;5069665;28;20636;-70
2023/07/11 00:35:56;;;;;;;10.10;9.10;;;27.10;99.90;;;;;;5070479;28;20272;-80
2023/07/11 00:38:23;;;;;;;9.55;8.65;;;27.10;99.90;;;;;;5070344;28;20237;-69
2023/07/11 00:40:51;;;;;;;9.10;8.30;;;27.00;99.90;;;;;;5070821;28;20267;-69
2023/07/11 00:43:20;;;;;;;8.32;7.57;;;27.00;99.90;;;;;;5070383;28;20206;-79
2023/07/11 00:46:05;;;;;;;8.93;8.07;;;26.90;99.90;;;;;;5070166;28;20240;-70
2023/07/11 00:48:35;;;;;;;12.18;8.27;;;27.00;99.90;;;;;;5069829;28;20309;-70
2023/07/11 00:51:02;;;;;;;7.68;7.07;;;27.00;99.90;;;;;;5070442;28;20210;-79
2023/07/11 00:53:31;;;;;;;11.02;7.38;;;26.80;99.90;;;;;;5069738;28;20260;-79
2023/07/11 00:56:03;;;;;;;11.70;7.18;;;26.80;99.90;;;;;;5070153;28;20240;-70
2023/07/11 00:58:32;;;;;;;11.18;7.22;;;26.70;99.90;;;;;;5069283;28;20663;-78
2023/07/11 01:01:00;;;;;;;8.88;7.53;;;26.60;99.90;;;;;;5070178;28;20246;-74
2023/07/11 01:03:29;;;;;;;10.77;6.85;;;26.70;99.90;;;;;;5069639;28;20242;-79
2023/07/11 01:05:56;;;;;;;7.82;6.97;;;26.60;99.90;;;;;;5070202;28;20233;-70
2023/07/11 01:08:23;;;;;;;9.85;7.63;;;26.60;99.90;;;;;;5069642;28;20238;-69
2023/07/11 01:10:50;;;;;;;10.55;7.22;;;26.60;99.90;;;;;;5055224;28;20239;-69
2023/07/11 01:13:17;;;;;;;9.10;7.05;;;26.60;99.90;;;;;;5070635;28;20238;-78
2023/07/11 01:15:44;;;;;;;12.82;8.23;;;26.70;99.90;;;;;;5069693;28;20280;-69
2023/07/11 01:18:11;;;;;;;12.00;6.78;;;26.60;99.90;;;;;;5069980;28;20238;-69
2023/07/11 01:20:40;;;;;;;7.20;6.13;;;26.60;99.90;;;;;;5069926;28;20299;-69
2023/07/11 01:23:08;;;;;;;11.23;6.43;;;26.60;99.90;;;;;;5069782;28;20241;-70
2023/07/11 01:25:38;;;;;;;14.25;8.07;;;26.60;99.90;;;;;;5069188;28;20241;-69
2023/07/11 01:28:05;;;;;;;11.75;7.63;;;26.60;99.90;;;;;;5073245;28;20286;-80
2023/07/11 01:30:32;;;;;;;10.68;6.70;;;26.60;99.90;;;;;;5073398;28;20242;-69
2023/07/11 01:32:59;;;;;;;13.13;6.57;;;26.60;99.90;;;;;;5070931;28;20736;-69
2023/07/11 01:35:26;;;;;;;8.57;6.25;;;26.60;99.90;;;;;;5067885;28;20728;-69
2023/07/11 01:37:53;;;;;;;11.40;7.00;;;26.60;99.90;;;;;;5073094;28;20230;-69
2023/07/11 01:40:21;;;;;;;13.25;6.30;;;26.50;99.90;;;;;;5064802;28;20218;-69
2023/07/11 01:42:49;;;;;;;9.88;6.63;;;26.50;99.90;;;;;;5060991;28;20268;-69
2023/07/11 01:45:16;;;;;;;12.02;6.18;;;26.40;99.90;;;;;;5067796;28;20216;-69
2023/07/11 01:47:43;;;;;;;10.73;6.57;;;26.40;99.90;;;;;;5072997;28;20626;-69
2023/07/11 01:50:10;;;;;;;14.60;6.03;;;26.40;99.90;;;;;;5073107;28;20245;-70
2023/07/11 01:52:37;;;;;;;16.00;6.85;;;26.40;99.90;;;;;;5058506;28;20230;-69
2023/07/11 01:55:05;;;;;;;9.95;5.72;;;26.40;99.90;;;;;;5072860;28;20234;-70
2023/07/11 01:57:33;;;;;;;13.18;5.93;;;26.30;99.90;;;;;;5072736;28;20210;-79
2023/07/11 02:00:00;;;;;;;13.10;6.22;;;26.30;99.90;;;;;;5072988;28;20234;-70
2023/07/11 02:02:27;;;;;;;12.00;6.28;;;26.20;99.90;;;;;;5072428;28;20232;-69
2023/07/11 02:04:54;;;;;;;8.20;5.15;;;26.20;99.90;;;;;;5073029;28;20264;-69
2023/07/11 02:07:21;;;;;;;12.60;6.80;;;26.20;99.90;;;;;;5072885;28;20293;-74
2023/07/11 02:09:48;;;;;;;12.30;7.68;;;26.20;99.90;;;;;;5058327;28;20206;-69
2023/07/11 02:12:15;;;;;;;15.50;6.50;;;26.20;99.90;;;;;;5073252;28;20214;-69
2023/07/11 02:14:43;;;;;;;13.60;5.97;;;26.10;99.90;;;;;;5072402;28;20639;-69
2023/07/11 02:17:11;;;;;;;13.75;6.38;;;26.00;99.90;;;;;;5072754;28;20383;-79
2023/07/11 02:19:38;;;;;;;13.88;6.05;;;26.00;99.90;;;;;;5072085;28;20666;-69
2023/07/11 02:22:05;;;;;;;13.70;6.20;;;25.90;99.90;;;;;;5072883;28;20251;-70
2023/07/11 02:24:32;;;;;;;15.65;6.50;;;25.90;99.90;;;;;;5071951;28;20245;-80
2023/07/11 02:26:59;;;;;;;15.20;6.15;;;25.80;99.90;;;;;;5072488;28;20241;-79
2023/07/11 02:29:26;;;;;;;12.93;7.00;;;25.80;99.90;;;;;;5072353;28;20257;-70
2023/07/11 02:31:54;;;;;;;22.33;7.28;;;25.80;99.90;;;;;;5072329;28;20241;-69
2023/07/11 02:34:21;;;;;;;13.18;6.85;;;25.90;99.90;;;;;;5072028;28;20249;-69
2023/07/11 02:36:48;;;;;;;11.63;7.43;;;25.90;99.90;;;;;;5072377;28;20280;-74
2023/07/11 02:39:15;;;;;;;13.68;5.20;;;25.90;99.90;;;;;;5071100;28;20246;-69
2023/07/11 02:41:42;;;;;;;13.27;6.70;;;25.80;99.90;;;;;;5070885;28;20238;-80
2023/07/11 02:44:09;;;;;;;14.35;5.82;;;25.70;99.90;;;;;;5059289;28;20234;-76
2023/07/11 02:46:37;;;;;;;12.15;5.72;;;25.60;99.90;;;;;;5071629;28;20257;-71
2023/07/11 02:49:08;;;;;;;12.98;6.82;;;25.60;99.90;;;;;;5072004;28;20240;-79
2023/07/11 02:51:35;;;;;;;8.95;5.68;;;25.60;99.90;;;;;;5071520;28;20206;-80
2023/07/11 02:54:03;;;;;;;16.77;6.38;;;25.70;99.90;;;;;;5071456;28;20233;-69
2023/07/11 02:56:29;;;;;;;14.40;7.72;;;25.70;99.90;;;;;;5071494;28;20233;-69
2023/07/11 02:59:00;;;;;;;11.40;6.45;;;25.80;99.90;;;;;;5071715;28;20239;-71
2023/07/11 03:01:27;;;;;;;8.80;6.65;;;25.80;99.90;;;;;;5071446;28;20656;-69
2023/07/11 03:03:54;;;;;;;11.00;5.72;;;25.70;99.90;;;;;;5071522;28;20238;-69
2023/07/11 03:06:22;;;;;;;12.70;5.75;;;25.70;99.90;;;;;;5071757;28;20269;-69
2023/07/11 03:08:49;;;;;;;10.98;7.03;;;25.50;99.90;;;;;;5071694;28;20216;-72
2023/07/11 03:11:16;;;;;;;12.52;7.05;;;25.50;99.90;;;;;;5071813;28;20241;-72
2023/07/11 03:13:43;;;;;;;10.35;5.32;;;25.50;99.90;;;;;;5071086;28;20646;-71
2023/07/11 03:16:10;;;;;;;12.20;5.55;;;25.50;99.90;;;;;;5071027;28;20265;-80
2023/07/11 03:18:37;;;;;;;11.90;6.15;;;25.60;99.90;;;;;;5071169;28;20689;-69
2023/07/11 03:21:04;;;;;;;13.90;7.32;;;25.60;99.90;;;;;;5071316;28;20217;-69
2023/07/11 03:23:33;;;;;;;13.15;6.53;;;25.60;99.90;;;;;;5070939;28;20238;-80
2023/07/11 03:25:59;;;;;;;14.07;5.93;;;25.40;99.90;;;;;;5071331;28;20241;-69
2023/07/11 03:28:26;;;;;;;8.65;6.75;;;25.30;99.90;;;;;;5070886;28;20248;-80
2023/07/11 03:30:53;;;;;;;10.65;5.10;;;25.20;99.90;;;;;;5071221;28;20624;-77
2023/07/11 03:33:20;;;;;;;8.82;5.93;;;25.30;99.90;;;;;;5071254;28;20218;-70
2023/07/11 03:35:51;;;;;;;10.15;5.53;;;25.30;99.90;;;;;;5071251;28;20268;-69
2023/07/11 03:38:18;;;;;;;14.15;7.15;;;25.30;99.90;;;;;;5071235;28;20206;-69
2023/07/11 03:40:46;;;;;;;14.63;7.10;;;25.40;99.90;;;;;;5070939;28;20238;-81
2023/07/11 03:43:14;;;;;;;11.05;5.95;;;25.20;99.90;;;;;;5057326;28;20242;-69
2023/07/11 03:45:42;;;;;;;8.80;5.57;;;25.20;99.90;;;;;;5070149;28;20656;-81
2023/07/11 03:48:09;;;;;;;12.23;5.85;;;25.20;99.90;;;;;;5071188;28;20208;-81
2023/07/11 03:50:36;;;;;;;20.23;7.75;;;25.10;99.90;;;;;;5069833;28;20226;-71
2023/07/11 03:53:03;;;;;;;11.88;6.13;;;25.10;99.90;;;;;;5070857;28;20294;-69
2023/07/11 03:55:30;;;;;;;12.82;6.13;;;25.10;99.90;;;;;;5069958;28;20242;-70
2023/07/11 03:57:58;;;;;;;12.30;6.50;;;25.10;99.90;;;;;;5071137;28;20244;-70
2023/07/11 04:00:25;;;;;;;9.15;7.05;;;25.10;99.90;;;;;;5070175;28;20242;-69
2023/07/11 04:02:52;;;;;;;11.02;6.68;;;25.10;99.90;;;;;;5070698;28;20728;-69
2023/07/11 04:05:19;;;;;;;10.70;5.82;;;25.00;99.90;;;;;;5071056;28;20244;-82
2023/07/11 04:07:46;;;;;;;14.75;7.18;;;25.10;99.90;;;;;;5070405;28;20805;-81
2023/07/11 04:10:13;;;;;;;17.00;7.40;;;25.00;99.90;;;;;;5070476;28;20238;-69
2023/07/11 04:12:40;;;;;;;12.63;6.38;;;25.00;99.90;;;;;;5069936;28;21109;-81
2023/07/11 04:15:09;;;;;;;9.00;6.28;;;25.00;99.90;;;;;;5070558;28;20630;-69
2023/07/11 04:17:36;;;;;;;12.48;6.32;;;24.90;99.90;;;;;;5070061;28;20277;-69
2023/07/11 04:20:03;;;;;;;10.23;6.38;;;24.90;99.90;;;;;;5070395;28;20241;-69
2023/07/11 04:22:30;;;;;;;14.35;5.65;;;25.00;99.90;;;;;;5069885;28;20242;-70
2023/07/11 04:24:57;;;;;;;11.45;6.10;;;24.90;99.90;;;;;;5070567;28;20674;-69
2023/07/11 04:27:25;;;;;;;13.43;6.68;;;24.90;99.90;;;;;;5070023;28;20245;-69
2023/07/11 04:29:52;;;;;;;13.23;5.70;;;25.00;99.90;;;;;;5070309;28;20245;-70
2023/07/11 04:32:21;;;;;;;10.05;5.25;;;25.00;99.90;;;;;;5070683;28;20206;-70
2023/07/11 04:34:49;;;;;;;14.80;8.07;;;25.00;99.90;;;;;;5070232;28;20206;-69
2023/07/11 04:37:16;;;;;;;9.52;4.68;;;25.00;99.90;;;;;;5070495;28;20233;-71
2023/07/11 04:39:43;;;;;;;12.32;5.05;;;24.90;99.90;;;;;;5069665;28;20679;-70
2023/07/11 04:42:10;;;;;;;13.05;5.63;;;25.00;99.90;;;;;;5065865;28;20709;-70
2023/07/11 04:44:36;;;;;;;14.38;5.88;;;24.80;99.90;;;;;;5060730;28;20252;-71
2023/07/11 04:47:04;;;;;;;9.90;4.93;;;24.80;99.90;;;;;;5070100;28;20697;-75
2023/07/11 04:49:32;;;;;;;9.40;5.53;;;24.80;99.90;;;;;;5069627;28;20287;-75
2023/07/11 04:51:59;;;;;;;12.07;5.53;;;24.80;99.90;;;;;;5069885;28;20237;-78
2023/07/11 04:54:26;;;;;;;17.45;5.07;;;24.80;99.90;;;;;;5069761;28;20240;-74
2023/07/11 04:56:57;;;;;;;14.20;5.22;;;24.80;99.90;;;;;;5070205;28;20324;-75
2023/07/11 04:59:24;;;;;;;15.60;5.82;;;24.80;99.90;;;;;;5069401;28;20264;-74
2023/07/11 05:01:51;;;;;;;10.52;5.13;;;24.80;99.90;;;;;;5071650;28;20248;-74
2023/07/11 05:04:18;;;;;;;14.00;5.68;;;24.90;99.90;;;;;;5073828;28;20241;-78
2023/07/11 05:06:48;;;;;;;14.60;4.43;;;25.00;99.90;;;;;;5074076;28;20237;-76
2023/07/11 05:09:15;;;;;;;8.85;5.15;;;25.20;99.90;;;;;;5074088;28;20666;-76
2023/07/11 05:11:43;;;;;;;9.77;5.65;;;25.20;99.90;;;;;;5073679;28;20605;-73
2023/07/11 05:14:10;;;;;;;16.85;5.53;;;25.30;99.90;;;;;;5073674;28;20755;-77
2023/07/11 05:16:38;;;;;;;11.02;5.57;;;25.20;99.90;;;;;;5073293;28;20261;-79
2023/07/11 05:19:04;;;;;;;14.77;6.15;;;25.20;99.90;;;;;;5073258;28;20253;-76
2023/07/11 05:21:32;;;;;;;12.15;4.57;;;25.10;99.90;;;;;;5073342;28;20241;-78
2023/07/11 05:24:01;;;;;;;10.43;5.30;;;25.10;99.90;;;;;;5073856;28;20203;-79
2023/07/11 05:26:28;;;;;;;14.20;5.03;;;25.30;99.90;;;;;;5073063;28;20243;-79
2023/07/11 05:28:55;;;;;;;8.77;4.10;;;25.30;99.90;;;;;;5073678;28;20287;-79
2023/07/11 05:31:23;;;;;;;11.73;4.72;;;25.40;99.90;;;;;;5073156;28;20238;-79
2023/07/11 05:33:52;;;;;;;6.03;3.85;;;25.40;99.90;;;;;;5073695;28;20641;-79
2023/07/11 05:36:30;;;;;;;11.93;5.25;;;25.40;99.90;;;;;;5073450;28;20240;-79
2023/07/11 05:38:57;;;;;;;16.90;5.22;;;25.50;99.90;;;;;;5073328;28;20206;-74
2023/07/11 05:41:26;;;;;;;7.65;4.93;;;25.50;99.90;;;;;;5073037;28;20659;-74
2023/07/11 05:43:54;;;;;;;7.88;4.38;;;25.60;99.90;;;;;;5059160;28;20234;-79
2023/07/11 05:46:21;;;;;;;17.38;5.07;;;25.70;99.90;;;;;;5073353;28;20249;-79
2023/07/11 05:48:48;;;;;;;6.32;3.78;;;25.60;99.90;;;;;;5073301;28;20202;-78
2023/07/11 05:51:16;;;;;;;8.50;4.63;;;25.70;99.90;;;;;;5073222;28;20217;-79
2023/07/11 05:53:43;;;;;;;8.38;5.20;;;25.70;99.90;;;;;;5072786;28;20224;-79
2023/07/11 05:56:10;;;;;;;10.82;4.43;;;25.80;99.90;;;;;;5073043;28;20291;-69
2023/07/11 05:58:39;;;;;;;9.80;4.32;;;25.80;99.90;;;;;;5072341;28;20241;-69
2023/07/11 06:01:06;;;;;;;7.22;4.88;;;25.70;99.90;;;;;;5073137;28;20206;-73
2023/07/11 06:03:33;;;;;;;14.13;5.45;;;25.80;99.90;;;;;;5072671;28;20682;-69
2023/07/11 06:06:01;;;;;;;7.50;4.55;;;26.00;99.90;;;;;;5072701;28;20206;-79
2023/07/11 06:08:29;;;;;;;11.57;4.53;;;26.10;99.90;;;;;;5072652;28;20206;-79
2023/07/11 06:10:58;;;;;;;8.50;4.40;;;26.10;99.90;;;;;;5072538;28;20229;-69
2023/07/11 06:13:26;;;;;;;16.88;4.90;;;26.10;99.90;;;;;;5072141;28;20210;-68
2023/07/11 06:15:59;;;;;;;8.20;4.78;;;26.20;99.90;;;;;;5072368;28;20237;-80
2023/07/11 06:18:26;;;;;;;9.40;4.65;;;26.20;99.90;;;;;;5072234;28;20229;-78
2023/07/11 06:20:53;;;;;;;11.50;4.25;;;26.30;99.90;;;;;;5072638;28;20245;-81
2023/07/11 06:23:21;;;;;;;14.57;5.10;;;26.30;99.90;;;;;;5072741;28;20241;-69
2023/07/11 06:25:48;;;;;;;12.60;4.93;;;26.40;99.90;;;;;;5072354;28;20206;-74
2023/07/11 06:28:15;;;;;;;18.02;5.05;;;26.40;99.90;;;;;;5072864;28;20666;-80
2023/07/11 06:30:42;;;;;;;8.85;4.05;;;26.50;99.90;;;;;;5071884;28;20233;-72
2023/07/11 06:33:12;;;;;;;10.23;4.30;;;26.60;99.90;;;;;;5072184;28;20246;-69
2023/07/11 06:35:41;;;;;;;15.18;5.68;;;26.50;99.90;;;;;;5071865;28;20233;-69
2023/07/11 06:38:08;;;;;;;13.27;4.88;;;26.50;99.90;;;;;;5071854;28;20222;-69
2023/07/11 06:40:35;;;;;;;8.48;5.20;;;26.60;99.90;;;;;;5072169;28;20233;-79
2023/07/11 06:43:02;;;;;;;9.55;4.80;;;26.30;99.90;;;;;;5060472;28;20285;-78
2023/07/11 06:45:29;;;;;;;13.52;5.78;;;26.30;99.90;;;;;;5069425;28;20245;-69
2023/07/11 06:47:56;;;;;;;17.95;6.30;;;26.30;99.90;;;;;;5072006;28;20241;-79
2023/07/11 06:50:24;;;;;;;11.90;6.50;;;26.40;99.90;;;;;;5071512;28;20651;-70
2023/07/11 06:52:51;;;;;;;9.30;5.13;;;26.60;99.90;;;;;;5072099;28;20237;-74
2023/07/11 06:55:18;;;;;;;6.43;5.22;;;26.90;99.90;;;;;;5072190;28;20242;-69
2023/07/11 06:57:45;;;;;;;11.15;5.97;;;26.90;99.90;;;;;;5071629;28;20265;-80
2023/07/11 07:00:12;;;;;;;6.75;4.65;;;27.00;99.90;;;;;;5071552;28;20246;-72
2023/07/11 07:02:40;;;;;;;11.32;5.57;;;26.90;99.90;;;;;;5071302;28;20241;-70
2023/07/11 07:05:07;;;;;;;8.40;5.30;;;26.90;99.90;;;;;;5071622;28;20293;-71
2023/07/11 07:07:35;;;;;;;12.80;5.20;;;27.00;99.90;;;;;;5071346;28;20241;-78
2023/07/11 07:10:02;;;;;;;15.32;6.22;;;26.90;99.90;;;;;;5071736;28;20241;-70
2023/07/11 07:12:29;;;;;;;7.68;4.70;;;27.20;99.90;;;;;;5071018;28;20264;-69
2023/07/11 07:14:56;;;;;;;13.70;6.18;;;27.40;99.90;;;;;;5071495;28;20674;-69
2023/07/11 07:17:23;;;;;;;16.95;5.38;;;27.50;99.90;;;;;;5070918;28;20319;-68
2023/07/11 07:19:50;;;;;;;10.95;6.35;;;27.60;99.90;;;;;;5071651;28;20230;-70
2023/07/11 07:22:17;;;;;;;16.13;6.38;;;27.50;99.90;;;;;;5071892;28;20249;-76
2023/07/11 07:24:45;;;;;;;13.18;5.93;;;27.50;99.90;;;;;;5070043;28;20681;-78
2023/07/11 07:27:12;;;;;;;10.73;6.43;;;27.40;99.90;;;;;;5071382;28;20237;-77
2023/07/11 07:29:39;;;;;;;13.07;7.15;;;27.40;99.90;;;;;;5070483;28;20238;-78
2023/07/11 07:32:07;;;;;;;13.40;5.60;;;27.60;99.90;;;;;;5071077;28;20690;-69
2023/07/11 07:34:33;;;;;;;14.80;7.15;;;27.60;99.90;;;;;;5070451;28;20237;-78
2023/07/11 07:37:00;;;;;;;14.68;5.68;;;27.70;99.90;;;;;;5071066;28;20262;-70
2023/07/11 07:39:27;;;;;;;9.50;6.47;;;27.70;99.90;;;;;;5070877;28;20681;-70
2023/07/11 07:41:55;;;;;;;15.23;6.35;;;27.90;99.90;;;;;;5068761;28;20244;-78
2023/07/11 07:44:22;;;;;;;14.88;6.20;;;28.00;99.90;;;;;;5059400;28;20238;-72
2023/07/11 07:46:49;;;;;;;15.02;7.00;;;28.20;99.90;;;;;;5070924;28;20237;-70
2023/07/11 07:49:16;;;;;;;16.60;6.60;;;28.30;99.90;;;;;;5071228;28;20206;-71
2023/07/11 07:51:43;;;;;;;15.88;7.63;;;28.30;99.90;;;;;;5070489;28;20622;-70
2023/07/11 07:54:10;;;;;;;17.95;7.30;;;28.40;99.90;;;;;;5070745;28;20359;-69
2023/07/11 07:56:37;;;;;;;13.20;7.40;;;28.20;99.90;;;;;;5070359;28;20245;-70
2023/07/11 07:59:05;;;;;;;12.98;5.85;;;28.40;99.90;;;;;;5070412;28;20674;-71
2023/07/11 08:01:32;;;;;;;13.23;6.85;;;29.00;99.90;;;;;;5070093;28;20245;-69
2023/07/11 08:03:59;;;;;;;13.55;6.63;;;29.20;99.90;;;;;;5070582;28;20241;-70
2023/07/11 08:06:26;;;;;;;16.23;7.13;;;29.80;99.90;;;;;;5070595;28;20311;-70
2023/07/11 08:08:53;;;;;;;15.48;6.50;;;29.40;99.90;;;;;;5070758;28;20237;-70
2023/07/11 08:11:22;;;;;;;19.40;6.85;;;29.20;99.90;;;;;;5070595;28;20260;-70
2023/07/11 08:13:49;;;;;;;14.48;7.07;;;28.90;99.90;;;;;;5070764;28;20201;-69
2023/07/11 08:16:19;;;;;;;13.77;7.15;;;28.50;99.90;;;;;;5070573;28;20241;-68
2023/07/11 08:18:46;;;;;;;11.48;5.93;;;28.70;99.90;;;;;;5070808;28;20237;-70
2023/07/11 08:21:13;;;;;;;19.58;7.43;;;28.40;99.90;;;;;;5070403;28;20283;-69
2023/07/11 08:23:40;;;;;;;14.65;6.55;;;28.60;99.90;;;;;;5070117;28;20742;-69
2023/07/11 08:26:08;;;;;;;16.30;7.55;;;28.90;99.90;;;;;;5070153;28;20237;-70
2023/07/11 08:28:35;;;;;;;13.70;5.93;;;29.20;99.90;;;;;;5069996;28;20245;-68
2023/07/11 08:31:04;;;;;;;15.82;6.88;;;29.20;99.90;;;;;;5070550;28;20238;-68
2023/07/11 08:33:33;;;;;;;20.73;7.07;;;28.90;99.90;;;;;;5070029;28;20297;-69
2023/07/11 08:35:59;;;;;;;14.35;6.20;;;29.20;99.90;;;;;;5072439;28;20234;-69
2023/07/11 08:38:26;;;;;;;16.73;6.20;;;29.20;99.90;;;;;;5073942;28;20261;-69
2023/07/11 08:40:54;;;;;;;22.23;9.23;;;29.40;99.90;;;;;;5074230;28;20713;-69
2023/07/11 08:43:27;;;;;;;18.15;7.40;;;29.30;99.90;;;;;;5060207;28;20206;-77
2023/07/11 08:45:58;;;;;;;20.90;7.78;;;29.60;99.90;;;;;;5074376;28;20669;-78
2023/07/11 08:48:31;;;;;;;19.40;7.50;;;29.80;99.90;;;;;;5073806;28;20250;-71
2023/07/11 08:51:05;;;;;;;19.65;8.90;;;29.80;99.90;;;;;;5074398;28;20244;-72
2023/07/11 08:53:38;;;;;;;16.27;7.10;;;29.10;99.90;;;;;;5074205;28;20252;-69
2023/07/11 08:56:14;;;;;;;17.65;6.82;;;29.40;99.90;;;;;;5074332;28;20245;-77
2023/07/11 08:58:42;;;;;;;19.00;5.75;;;29.90;99.90;;;;;;5073802;28;20265;-77
2023/07/11 09:01:20;;;;;;;15.68;6.35;;;30.00;99.90;;;;;;5074261;28;20351;-69
2023/07/11 09:03:49;;;;;;;14.52;7.28;;;30.20;99.90;;;;;;5073734;28;20245;-70
2023/07/11 09:06:21;;;;;;;22.33;8.23;;;30.70;99.90;;;;;;5074652;28;20244;-70
2023/07/11 09:08:54;;;;;;;18.50;7.55;;;31.30;99.90;;;;;;5074423;28;20209;-72
2023/07/11 09:11:27;;;;;;;18.90;7.43;;;32.00;99.90;;;;;;5073794;28;20201;-70
2023/07/11 09:14:01;;;;;;;19.35;8.02;;;31.40;99.90;;;;;;5073931;28;20213;-74
2023/07/11 09:16:35;;;;;;;13.63;6.55;;;31.20;99.90;;;;;;5073517;28;20241;-70
2023/07/11 09:19:17;;;;;;;16.48;7.35;;;30.60;99.90;;;;;;5073801;28;20328;-71
2023/07/11 09:21:53;;;;;;;15.70;6.70;;;30.70;99.90;;;;;;5073429;28;20288;-77
2023/07/11 09:24:32;;;;;;;15.93;7.57;;;30.90;99.90;;;;;;5073243;28;20677;-69
2023/07/11 09:27:05;;;;;;;17.60;7.47;;;31.70;99.90;;;;;;5073635;28;20728;-75
2023/07/11 09:29:33;;;;;;;22.25;7.80;;;31.60;99.90;;;;;;5073096;28;20205;-76
2023/07/11 09:32:02;;;;;;;15.20;7.15;;;32.70;99.90;;;;;;5073738;28;20629;-77
2023/07/11 09:34:34;;;;;;;16.25;7.55;;;33.50;99.90;;;;;;5072814;28;20244;-70
2023/07/11 09:37:13;;;;;;;18.00;8.35;;;35.00;99.90;;;;;;5073355;28;20198;-80
2023/07/11 09:39:43;;;;;;;20.25;7.45;;;36.60;99.90;;;;;;5072614;28;20734;-71
2023/07/11 09:42:21;;;;;;;16.70;7.40;;;37.80;99.90;;;;;;5068849;28;20229;-71
2023/07/11 09:45:02;;;;;;;18.17;7.18;;;38.60;99.90;;;;;;5066171;28;20213;-72
2023/07/11 09:47:30;;;;;;;15.15;7.95;;;38.80;99.90;;;;;;5072402;28;20720;-75
2023/07/11 09:49:59;;;;;;;19.90;7.88;;;37.70;99.90;;;;;;5073176;28;20266;-76
2023/07/11 09:52:29;;;;;;;18.55;8.00;;;39.90;99.90;;;;;;5072489;28;20205;-79
2023/07/11 09:54:57;;;;;;;19.98;8.10;;;39.60;99.90;;;;;;5073023;28;20233;-78
2023/07/11 09:57:25;;;;;;;16.17;7.47;;;41.10;99.90;;;;;;5072541;28;20197;-71
2023/07/11 09:59:56;;;;;;;16.00;6.60;;;41.90;99.90;;;;;;5073123;28;20209;-71
2023/07/11 10:02:23;;;;;;;18.70;6.82;;;43.10;99.90;;;;;;5072667;28;20692;-72
2023/07/11 10:04:51;;;;;;;16.33;7.63;;;43.80;99.90;;;;;;5073257;28;20212;-71
2023/07/11 10:07:21;;;;;;;19.83;7.47;;;38.90;99.90;;;;;;5073164;28;20201;-75
2023/07/11 10:09:52;;;;;;;15.10;7.43;;;39.10;99.90;;;;;;5073220;28;20205;-77
2023/07/11 10:12:23;;;;;;;13.50;6.90;;;40.30;99.90;;;;;;5072946;28;20665;-78
2023/07/11 10:14:58;;;;;;;13.43;6.90;;;42.00;99.90;;;;;;5073125;28;20212;-73
2023/07/11 10:17:27;;;;;;;15.85;7.40;;;42.50;99.90;;;;;;5072216;28;20233;-71
2023/07/11 10:19:57;;;;;;;17.95;7.22;;;43.20;99.90;;;;;;5072874;28;20213;-74
2023/07/11 10:22:27;;;;;;;21.33;7.57;;;43.60;99.90;;;;;;5072116;28;20680;-76
2023/07/11 10:25:02;;;;;;;17.30;7.55;;;42.30;99.90;;;;;;5072552;28;20300;-71
2023/07/11 10:27:34;;;;;;;19.48;8.15;;;43.90;99.90;;;;;;5072310;28;20205;-77
2023/07/11 10:30:03;;;;;;;18.30;7.88;;;43.20;99.90;;;;;;5072667;28;20201;-78
2023/07/11 10:32:36;;;;;;;18.83;7.82;;;41.30;99.90;;;;;;5072052;28;20213;-71
2023/07/11 10:35:09;;;;;;;17.48;7.43;;;38.30;99.90;;;;;;5072527;28;20209;-79
2023/07/11 10:37:40;;;;;;;21.85;9.35;;;36.40;99.90;;;;;;5071470;28;20700;-71
2023/07/11 10:40:15;;;;;;;16.80;7.30;;;35.30;99.90;;;;;;5072026;28;20649;-77
2023/07/11 10:42:46;;;;;;;21.42;9.65;;;34.90;99.90;;;;;;5062925;28;20206;-71
2023/07/11 10:45:17;;;;;;;23.15;9.35;;;32.90;99.90;;;;;;5067965;28;20233;-71
2023/07/11 10:47:51;;;;;;;18.13;8.77;;;32.90;99.90;;;;;;5071851;28;20308;-71
2023/07/11 10:50:28;;;;;;;23.58;8.57;;;32.50;99.90;;;;;;5072198;28;20243;-70
2023/07/11 10:53:00;;;;;;;13.77;8.45;;;32.70;99.90;;;;;;5072032;28;20240;-72
2023/07/11 10:55:34;;;;;;;21.45;8.27;;;33.30;99.90;;;;;;5071556;28;20248;-76
2023/07/11 10:58:02;;;;;;;22.25;9.10;;;33.60;99.90;;;;;;5071768;28;20692;-78
2023/07/11 11:00:40;;;;;;;18.08;8.85;;;33.60;99.90;;;;;;5070173;28;20239;-78
2023/07/11 11:03:17;;;;;;;15.68;8.30;;;33.70;99.90;;;;;;5072110;28;20205;-77
2023/07/11 11:05:57;;;;;;;21.48;8.77;;;33.50;99.90;;;;;;5069983;28;20220;-71
2023/07/11 11:08:33;;;;;;;17.58;8.85;;;33.10;99.90;;;;;;5071439;28;20299;-71
2023/07/11 11:11:12;;;;;;;16.65;8.02;;;32.70;99.90;;;;;;5071888;28;20237;-71
2023/07/11 11:13:48;;;;;;;14.95;8.43;;;33.20;99.90;;;;;;5071150;28;20248;-71
2023/07/11 11:16:24;;;;;;;15.95;7.90;;;33.40;99.90;;;;;;5071415;28;20576;-77
2023/07/11 11:19:07;;;;;;;17.92;8.73;;;32.80;99.90;;;;;;5071349;28;20225;-71
2023/07/11 11:21:40;;;;;;;16.77;7.95;;;32.70;99.90;;;;;;5070883;28;20216;-77
2023/07/11 11:24:23;;;;;;;22.80;8.38;;;33.00;99.90;;;;;;5071281;28;20290;-79
2023/07/11 11:26:59;;;;;;;19.92;8.77;;;33.40;99.90;;;;;;5071352;28;20696;-71
2023/07/11 11:29:38;;;;;;;24.02;9.52;;;33.90;99.90;;;;;;5071082;28;20213;-70
2023/07/11 11:32:19;;;;;;;20.20;8.35;;;33.70;99.90;;;;;;5071269;28;20240;-78
2023/07/11 11:35:01;;;;;;;18.38;9.32;;;33.80;99.90;;;;;;5070946;28;20223;-76
2023/07/11 11:37:35;;;;;;;23.27;10.27;;;32.90;99.90;;;;;;5070543;28;20248;-71
2023/07/11 11:40:09;;;;;;;19.60;8.73;;;33.10;99.90;;;;;;5070933;28;20264;-77
2023/07/11 11:42:42;;;;;;;16.60;8.75;;;33.20;99.90;;;;;;5062422;28;20644;-70
2023/07/11 11:45:15;;;;;;;15.77;7.80;;;33.50;99.90;;;;;;5066141;28;20210;-78
2023/07/11 11:47:43;;;;;;;25.20;9.90;;;33.80;99.90;;;;;;5070531;28;20216;-71
2023/07/11 11:50:14;;;;;;;16.30;8.98;;;33.20;99.90;;;;;;5070938;28;20272;-71
2023/07/11 11:52:43;;;;;;;18.63;7.90;;;33.20;99.90;;;;;;5070604;28;20248;-78
2023/07/11 11:55:26;;;;;;;14.98;8.45;;;32.10;99.90;;;;;;5071049;28;20214;-71
2023/07/11 11:57:54;;;;;;;13.73;8.10;;;32.60;99.90;;;;;;5070823;28;20205;-77
2023/07/11 12:00:35;;;;;;;16.27;7.78;;;33.20;99.90;;;;;;5070574;28;20237;-70
2023/07/11 12:03:02;;;;;;;21.00;8.52;;;33.70;99.90;;;;;;5070823;28;20244;-75
2023/07/11 12:05:30;;;;;;;19.05;8.23;;;33.70;99.90;;;;;;5069839;28;20268;-77
2023/07/11 12:08:25;;;;;;;16.83;8.27;;;33.60;99.90;;;;;;5070904;28;20237;-78
2023/07/11 12:11:19;;;;;;;17.55;8.70;;;33.80;99.90;;;;;;5070343;28;20306;-69
2023/07/11 12:14:34;;;;;;;17.33;9.07;;;33.60;99.90;;;;;;5070488;28;20205;-70
2023/07/11 12:17:02;;;;;;;20.35;7.97;;;33.00;99.90;;;;;;5034975;28;20241;-71
2023/07/11 12:19:33;;;;;;;16.65;8.10;;;32.80;99.90;;;;;;5069885;28;20291;-71
2023/07/11 12:22:05;;;;;;;14.38;7.95;;;33.10;99.90;;;;;;5070514;28;20241;-71
2023/07/11 12:24:59;;;;;;;16.27;7.70;;;33.10;99.90;;;;;;5069733;28;20201;-70
2023/07/11 12:27:57;;;;;;;16.23;8.07;;;32.90;99.90;;;;;;5070165;28;20300;-70
2023/07/11 12:30:44;;;;;;;13.15;9.38;;;33.10;99.90;;;;;;5070033;28;20288;-70
2023/07/11 12:33:40;;;;;;;22.08;9.95;;;33.00;99.90;;;;;;5070011;28;20249;-71
2023/07/11 12:36:56;;;;;;;15.52;9.02;;;33.00;99.90;;;;;;5008395;28;20242;-71
2023/07/11 12:39:43;;;;;;;16.10;8.77;;;32.50;99.90;;;;;;5070062;28;20275;-71
2023/07/11 12:42:38;;;;;;;18.38;8.30;;;32.60;99.90;;;;;;5063554;28;20238;-79
2023/07/11 12:45:14;;;;;;;16.95;8.85;;;33.20;99.90;;;;;;5064942;28;20248;-77
2023/07/11 12:47:44;;;;;;;14.98;9.82;;;33.50;99.90;;;;;;5069607;28;20245;-78
2023/07/11 12:50:20;;;;;;;24.23;9.73;;;33.50;99.90;;;;;;5070360;28;20209;-77
2023/07/11 12:52:56;;;;;;;20.98;9.27;;;33.30;99.90;;;;;;5070240;28;20236;-79